Time;durP1;ratioP1;P1;durP2;ratioP2;P2;SDS_P1;SDS_P2;PMS_P1;PMS_P2;Temp;Humidity;BMP_temperature;BMP_pressure;BME280_temperature;BME280_humidity;BME280_pressure;Samples;Min_cycle;Max_cycle;Signal;HPM_P1;HPM_P2
2024/02/02 00:01:14;;;;;;;2.45;1.30;;;21.40;48.30;;;;;;5081790;28;20024;-69
2024/02/02 00:03:40;;;;;;;2.33;1.30;;;21.40;48.30;;;;;;5082691;28;20487;-69
2024/02/02 00:06:05;;;;;;;2.92;1.40;;;21.40;48.40;;;;;;5079344;28;20024;-68
2024/02/02 00:08:31;;;;;;;2.67;1.33;;;21.40;48.40;;;;;;5081104;28;20028;-69
2024/02/02 00:10:57;;;;;;;3.70;1.30;;;21.30;48.40;;;;;;5081128;28;20077;-69
2024/02/02 00:13:23;;;;;;;2.63;1.30;;;21.30;48.40;;;;;;5081950;28;20020;-68
2024/02/02 00:15:49;;;;;;;2.70;1.38;;;21.30;48.40;;;;;;5078269;28;20511;-67
2024/02/02 00:18:15;;;;;;;2.17;1.20;;;21.30;48.40;;;;;;5082111;28;20055;-69
2024/02/02 00:20:40;;;;;;;2.58;1.40;;;21.30;48.40;;;;;;5077904;28;20118;-69
2024/02/02 00:23:06;;;;;;;1.73;1.00;;;21.30;48.40;;;;;;5071049;28;20082;-68
2024/02/02 00:25:32;;;;;;;2.10;1.20;;;21.30;48.40;;;;;;5081017;28;20032;-69
2024/02/02 00:27:58;;;;;;;2.15;1.25;;;21.20;48.30;;;;;;5077808;28;20024;-67
2024/02/02 00:30:23;;;;;;;2.35;1.20;;;21.20;48.30;;;;;;5079308;28;20033;-69
2024/02/02 00:32:49;;;;;;;1.63;1.00;;;21.20;48.30;;;;;;5080514;28;20064;-68
2024/02/02 00:35:15;;;;;;;2.33;1.20;;;21.20;48.30;;;;;;5080941;28;20036;-63
2024/02/02 00:37:40;;;;;;;1.58;1.10;;;21.20;48.40;;;;;;5069499;28;20130;-64
2024/02/02 00:40:08;;;;;;;2.17;1.10;;;21.20;48.40;;;;;;5079122;28;20819;-65
2024/02/02 00:42:35;;;;;;;2.03;1.23;;;21.20;48.40;;;;;;5059935;28;20373;-64
2024/02/02 00:45:00;;;;;;;1.67;1.02;;;21.20;48.40;;;;;;5061777;28;20385;-65
2024/02/02 00:47:26;;;;;;;1.75;1.05;;;21.20;48.40;;;;;;5058349;28;20046;-65
2024/02/02 00:49:52;;;;;;;1.77;1.10;;;21.10;48.40;;;;;;5058499;28;20039;-65
2024/02/02 00:52:18;;;;;;;2.25;1.20;;;21.10;48.40;;;;;;5058030;28;20021;-66
2024/02/02 00:54:43;;;;;;;2.05;1.13;;;21.10;48.40;;;;;;5058817;28;20020;-65
2024/02/02 00:57:11;;;;;;;2.05;1.00;;;21.10;48.40;;;;;;5059542;28;20665;-65
2024/02/02 00:59:37;;;;;;;1.88;1.10;;;21.10;48.40;;;;;;5057687;28;20017;-65
2024/02/02 01:02:02;;;;;;;1.70;1.05;;;21.10;48.50;;;;;;5059063;28;20032;-65
2024/02/02 01:04:28;;;;;;;1.98;1.10;;;21.10;48.50;;;;;;5060752;28;20012;-65
2024/02/02 01:06:54;;;;;;;1.38;1.00;;;21.00;48.40;;;;;;5056985;28;20032;-65
2024/02/02 01:09:20;;;;;;;1.52;1.00;;;21.00;48.50;;;;;;5059426;28;20019;-65
2024/02/02 01:11:46;;;;;;;2.58;1.33;;;21.00;48.50;;;;;;5059915;28;20021;-65
2024/02/02 01:14:11;;;;;;;2.25;1.23;;;21.00;48.50;;;;;;5059623;28;20385;-65
2024/02/02 01:16:37;;;;;;;1.70;1.00;;;21.00;48.50;;;;;;5058335;28;20029;-66
2024/02/02 01:19:03;;;;;;;1.90;1.10;;;21.00;48.50;;;;;;5059908;28;20049;-66
2024/02/02 01:21:28;;;;;;;2.08;0.90;;;21.00;48.50;;;;;;5059535;28;20054;-66
2024/02/02 01:23:54;;;;;;;2.30;1.13;;;21.00;48.50;;;;;;5042959;28;20021;-66
2024/02/02 01:26:20;;;;;;;2.22;1.20;;;20.90;48.50;;;;;;5056851;28;20607;-65
2024/02/02 01:28:46;;;;;;;2.00;1.05;;;20.90;48.50;;;;;;5058127;28;20032;-65
2024/02/02 01:31:11;;;;;;;1.98;1.10;;;20.90;48.50;;;;;;5061257;28;20543;-65
2024/02/02 01:33:37;;;;;;;2.47;1.38;;;20.90;48.50;;;;;;5058766;28;20087;-65
2024/02/02 01:36:03;;;;;;;2.03;1.20;;;20.90;48.50;;;;;;5060062;28;20472;-65
2024/02/02 01:38:28;;;;;;;1.75;1.20;;;20.90;48.60;;;;;;5056205;28;20040;-66
2024/02/02 01:40:54;;;;;;;1.52;1.00;;;20.90;48.60;;;;;;5059034;28;20032;-65
2024/02/02 01:43:23;;;;;;;1.52;0.90;;;20.90;48.50;;;;;;5060110;28;20029;-66
2024/02/02 01:45:50;;;;;;;1.40;1.00;;;20.90;48.60;;;;;;5049918;28;20035;-65
2024/02/02 01:48:16;;;;;;;1.33;0.98;;;20.90;48.60;;;;;;5060666;28;20120;-65
2024/02/02 01:50:42;;;;;;;1.75;1.00;;;20.80;48.50;;;;;;5059363;28;20614;-65
2024/02/02 01:53:08;;;;;;;1.80;1.00;;;20.80;48.60;;;;;;5056812;28;20081;-65
2024/02/02 01:55:34;;;;;;;1.88;1.05;;;20.80;48.60;;;;;;5059657;28;20116;-68
2024/02/02 01:58:00;;;;;;;2.30;1.10;;;20.80;48.60;;;;;;5073842;28;20044;-68
2024/02/02 02:00:25;;;;;;;1.27;0.90;;;20.80;48.60;;;;;;5058405;28;20029;-68
2024/02/02 02:02:52;;;;;;;1.75;1.00;;;20.80;48.60;;;;;;5058256;28;20032;-68
2024/02/02 02:05:18;;;;;;;1.92;1.05;;;20.70;48.60;;;;;;5058563;28;20505;-68
2024/02/02 02:07:45;;;;;;;2.33;1.13;;;20.70;48.60;;;;;;5055820;28;20028;-68
2024/02/02 02:10:13;;;;;;;1.75;1.00;;;20.70;48.60;;;;;;5057084;28;20511;-68
2024/02/02 02:12:41;;;;;;;1.80;1.10;;;20.80;48.70;;;;;;5058203;28;20822;-68
2024/02/02 02:15:09;;;;;;;1.30;0.80;;;20.70;48.60;;;;;;5056903;28;20422;-68
2024/02/02 02:17:36;;;;;;;1.40;1.00;;;20.70;48.60;;;;;;5049563;28;20039;-68
2024/02/02 02:20:04;;;;;;;1.27;0.90;;;20.70;48.70;;;;;;5049172;28;20034;-68
2024/02/02 02:22:30;;;;;;;2.00;1.20;;;20.70;48.60;;;;;;5056308;28;20112;-68
2024/02/02 02:24:55;;;;;;;2.35;1.10;;;20.70;48.60;;;;;;5058767;28;20107;-68
2024/02/02 02:27:21;;;;;;;1.42;0.93;;;20.70;48.60;;;;;;5057513;28;20381;-68
2024/02/02 02:29:47;;;;;;;1.35;0.90;;;20.70;48.60;;;;;;5057502;28;20039;-68
2024/02/02 02:32:13;;;;;;;1.60;0.90;;;20.70;48.70;;;;;;5058245;28;20043;-68
2024/02/02 02:34:38;;;;;;;1.15;0.80;;;20.70;48.70;;;;;;5049100;28;20028;-68
2024/02/02 02:37:04;;;;;;;1.67;0.88;;;20.70;48.70;;;;;;5054709;28;20024;-68
2024/02/02 02:39:29;;;;;;;1.67;0.90;;;20.70;48.70;;;;;;5057883;28;20025;-68
2024/02/02 02:41:55;;;;;;;1.85;1.05;;;20.60;48.60;;;;;;5058717;28;20052;-68
2024/02/02 02:44:21;;;;;;;1.88;1.10;;;20.60;48.60;;;;;;5054876;28;20151;-69
2024/02/02 02:46:48;;;;;;;1.30;0.88;;;20.60;48.70;;;;;;5057408;28;20025;-69
2024/02/02 02:49:13;;;;;;;1.17;0.90;;;20.60;48.70;;;;;;5048901;28;20564;-69
2024/02/02 02:51:39;;;;;;;1.20;0.98;;;20.60;48.70;;;;;;5056701;28;20128;-66
2024/02/02 02:54:04;;;;;;;0.98;0.80;;;20.60;48.70;;;;;;5057321;28;20029;-68
2024/02/02 02:56:30;;;;;;;1.98;1.08;;;20.60;48.70;;;;;;5057981;28;20029;-68
2024/02/02 02:58:56;;;;;;;1.58;0.98;;;20.60;48.70;;;;;;5056005;28;20464;-68
2024/02/02 03:01:21;;;;;;;2.13;1.00;;;20.60;48.70;;;;;;5059634;28;20032;-68
2024/02/02 03:03:47;;;;;;;1.33;0.90;;;20.60;48.70;;;;;;5060340;28;20481;-68
2024/02/02 03:06:13;;;;;;;1.38;0.90;;;20.60;48.70;;;;;;5058536;28;20431;-68
2024/02/02 03:08:38;;;;;;;2.03;0.90;;;20.60;48.80;;;;;;5055867;28;20029;-68
2024/02/02 03:11:04;;;;;;;1.15;0.80;;;20.60;48.80;;;;;;5052412;28;20061;-68
2024/02/02 03:13:30;;;;;;;1.35;0.80;;;20.50;48.70;;;;;;5061374;28;20049;-68
2024/02/02 03:15:55;;;;;;;1.45;1.00;;;20.50;48.70;;;;;;5061083;28;20035;-68
2024/02/02 03:18:21;;;;;;;1.35;0.90;;;20.50;48.70;;;;;;5061151;28;20021;-68
2024/02/02 03:20:47;;;;;;;1.23;0.90;;;20.50;48.70;;;;;;5059937;28;20052;-68
2024/02/02 03:23:12;;;;;;;1.40;0.88;;;20.50;48.80;;;;;;5059571;28;20029;-69
2024/02/02 03:25:38;;;;;;;2.35;1.00;;;20.50;48.80;;;;;;5064517;28;20560;-68
2024/02/02 03:28:04;;;;;;;1.77;1.00;;;20.50;48.80;;;;;;5064148;28;20036;-68
2024/02/02 03:30:30;;;;;;;1.83;0.98;;;20.50;48.80;;;;;;5059975;28;20528;-68
2024/02/02 03:32:55;;;;;;;1.40;0.85;;;20.50;48.80;;;;;;5060350;28;20036;-68
2024/02/02 03:35:21;;;;;;;1.30;0.90;;;20.50;48.80;;;;;;5061136;28;20337;-68
2024/02/02 03:37:47;;;;;;;1.42;0.90;;;20.50;48.80;;;;;;5059026;28;20025;-68
2024/02/02 03:40:13;;;;;;;1.55;0.80;;;20.40;48.80;;;;;;5060359;28;20029;-68
2024/02/02 03:42:39;;;;;;;1.33;0.82;;;20.40;48.80;;;;;;5059840;28;20698;-68
2024/02/02 03:45:05;;;;;;;1.70;0.90;;;20.40;48.80;;;;;;5057429;28;20024;-68
2024/02/02 03:47:31;;;;;;;1.88;1.10;;;20.40;48.80;;;;;;5061826;28;20425;-68
2024/02/02 03:49:57;;;;;;;1.38;0.98;;;20.40;48.80;;;;;;5060578;28;20167;-68
2024/02/02 03:52:23;;;;;;;1.50;0.95;;;20.40;48.80;;;;;;5059466;28;20032;-68
2024/02/02 03:54:52;;;;;;;1.38;0.80;;;20.40;48.80;;;;;;5061233;28;20140;-68
2024/02/02 03:57:18;;;;;;;1.23;0.90;;;20.40;48.90;;;;;;5043115;28;20021;-69
2024/02/02 03:59:44;;;;;;;0.98;0.70;;;20.40;48.90;;;;;;5059497;28;20029;-70
2024/02/02 04:02:10;;;;;;;1.30;0.80;;;20.40;48.90;;;;;;5059871;28;20357;-69
2024/02/02 04:04:35;;;;;;;1.00;0.70;;;20.40;48.90;;;;;;5060522;28;20488;-65
2024/02/02 04:07:01;;;;;;;1.17;0.70;;;20.40;48.90;;;;;;5060656;28;20024;-63
2024/02/02 04:09:27;;;;;;;1.30;0.75;;;20.40;48.90;;;;;;5059242;28;20029;-63
2024/02/02 04:11:53;;;;;;;1.40;0.88;;;20.40;48.90;;;;;;5061806;28;20029;-65
2024/02/02 04:14:19;;;;;;;2.15;0.73;;;20.30;48.80;;;;;;5061127;28;20649;-65
2024/02/02 04:16:44;;;;;;;1.02;0.85;;;20.30;49.40;;;;;;5062024;28;20437;-65
2024/02/02 04:19:15;;;;;;;1.60;0.70;;;20.30;48.90;;;;;;5061783;28;20082;-66
2024/02/02 04:21:41;;;;;;;2.13;0.90;;;20.30;48.90;;;;;;5059381;28;20373;-65
2024/02/02 04:24:07;;;;;;;1.25;0.80;;;20.30;48.90;;;;;;5058709;28;20111;-66
2024/02/02 04:26:33;;;;;;;1.15;0.80;;;20.30;48.90;;;;;;5051059;28;20025;-66
2024/02/02 04:28:58;;;;;;;0.80;0.77;;;20.30;48.90;;;;;;5075535;28;20051;-65
2024/02/02 04:31:24;;;;;;;1.05;0.70;;;20.30;48.90;;;;;;5059097;28;20485;-65
2024/02/02 04:33:50;;;;;;;1.45;0.95;;;20.30;48.90;;;;;;5050745;28;20036;-66
2024/02/02 04:36:15;;;;;;;0.98;0.70;;;20.30;48.90;;;;;;5076093;28;20108;-65
2024/02/02 04:38:42;;;;;;;0.80;0.70;;;20.30;49.00;;;;;;5060066;28;20052;-65
2024/02/02 04:41:07;;;;;;;1.20;0.77;;;20.30;49.00;;;;;;5059039;28;20489;-65
2024/02/02 04:43:33;;;;;;;1.73;0.80;;;20.30;49.00;;;;;;5050448;28;20027;-66
2024/02/02 04:45:59;;;;;;;1.58;0.88;;;20.30;49.00;;;;;;5058904;28;20428;-66
2024/02/02 04:48:25;;;;;;;0.77;0.68;;;20.30;49.00;;;;;;5059515;28;20048;-65
2024/02/02 04:50:50;;;;;;;1.40;0.90;;;20.30;49.00;;;;;;5059532;28;20032;-66
2024/02/02 04:53:16;;;;;;;1.38;0.80;;;20.20;49.00;;;;;;5058803;28;20116;-65
2024/02/02 04:55:42;;;;;;;0.88;0.70;;;20.20;49.00;;;;;;5059673;28;20021;-66
2024/02/02 04:58:07;;;;;;;1.25;0.80;;;20.20;49.00;;;;;;5062960;28;20025;-65
2024/02/02 05:00:33;;;;;;;1.85;0.90;;;20.20;49.10;;;;;;5042650;28;20036;-65
2024/02/02 05:02:59;;;;;;;1.50;0.90;;;20.20;49.10;;;;;;5060252;28;20058;-65
2024/02/02 05:05:24;;;;;;;1.92;0.80;;;20.20;49.10;;;;;;5061852;28;20745;-66
2024/02/02 05:07:50;;;;;;;0.93;0.77;;;20.20;49.10;;;;;;5057958;28;20485;-66
2024/02/02 05:10:16;;;;;;;1.35;0.80;;;20.20;49.10;;;;;;5060505;28;20078;-65
2024/02/02 05:12:41;;;;;;;1.30;0.90;;;20.10;49.10;;;;;;5058196;28;20086;-65
2024/02/02 05:15:07;;;;;;;1.33;0.80;;;20.20;49.20;;;;;;5060398;28;20052;-68
2024/02/02 05:17:33;;;;;;;1.02;0.80;;;20.20;49.20;;;;;;5058916;28;20389;-68
2024/02/02 05:19:58;;;;;;;0.80;0.70;;;20.20;49.20;;;;;;5058832;28;20029;-68
2024/02/02 05:22:24;;;;;;;1.13;0.77;;;20.20;49.20;;;;;;5074954;28;20024;-68
2024/02/02 05:24:50;;;;;;;1.13;0.70;;;20.20;49.20;;;;;;5049106;28;20032;-63
2024/02/02 05:27:16;;;;;;;1.58;0.80;;;20.20;49.20;;;;;;5057130;28;20063;-63
2024/02/02 05:29:44;;;;;;;0.88;0.80;;;20.20;49.20;;;;;;5059338;28;20080;-63
2024/02/02 05:32:10;;;;;;;1.02;0.70;;;20.20;49.30;;;;;;5059533;28;20505;-63
2024/02/02 05:34:35;;;;;;;1.00;0.70;;;20.20;49.30;;;;;;5058624;28;20035;-67
2024/02/02 05:37:01;;;;;;;1.00;0.90;;;20.20;49.30;;;;;;5056740;28;20037;-63
2024/02/02 05:39:27;;;;;;;1.23;0.85;;;20.20;49.30;;;;;;5058234;28;20033;-62
2024/02/02 05:41:54;;;;;;;1.20;0.80;;;20.20;49.30;;;;;;5048987;28;20056;-64
2024/02/02 05:44:20;;;;;;;1.17;0.90;;;20.20;49.30;;;;;;5057008;28;20021;-63
2024/02/02 05:46:46;;;;;;;1.40;0.82;;;20.10;49.30;;;;;;5059614;28;20044;-62
2024/02/02 05:49:11;;;;;;;1.15;0.73;;;20.20;49.30;;;;;;5057284;28;20041;-62
2024/02/02 05:51:37;;;;;;;1.33;0.90;;;20.10;49.30;;;;;;5077614;28;20024;-63
2024/02/02 05:54:02;;;;;;;1.25;0.80;;;20.10;49.30;;;;;;5077250;28;20020;-64
2024/02/02 05:56:28;;;;;;;1.00;0.80;;;20.10;49.30;;;;;;5079248;28;20507;-62
2024/02/02 05:58:54;;;;;;;1.65;0.90;;;20.10;49.40;;;;;;5080368;28;20051;-63
2024/02/02 06:01:19;;;;;;;1.00;0.80;;;20.10;49.40;;;;;;5080589;28;20392;-66
2024/02/02 06:03:45;;;;;;;1.75;0.82;;;20.10;49.40;;;;;;5080876;28;20048;-65
2024/02/02 06:06:10;;;;;;;1.60;0.80;;;20.10;49.40;;;;;;5077816;28;20099;-63
2024/02/02 06:08:36;;;;;;;2.25;0.93;;;20.10;49.40;;;;;;5061582;28;20744;-63
2024/02/02 06:11:03;;;;;;;1.92;1.00;;;20.10;49.50;;;;;;5096162;28;20118;-66
2024/02/02 06:13:29;;;;;;;2.47;1.23;;;20.10;49.60;;;;;;5078016;28;20108;-64
2024/02/02 06:15:55;;;;;;;3.45;1.27;;;20.10;49.70;;;;;;5070030;28;20460;-64
2024/02/02 06:18:20;;;;;;;2.28;1.30;;;20.10;49.80;;;;;;5076476;28;20032;-64
2024/02/02 06:20:46;;;;;;;2.40;1.20;;;20.10;49.90;;;;;;5069757;28;20555;-63
2024/02/02 06:23:12;;;;;;;2.58;1.40;;;20.10;50.00;;;;;;5078283;28;20131;-64
2024/02/02 06:25:38;;;;;;;2.00;1.10;;;20.10;50.00;;;;;;5078843;28;20031;-69
2024/02/02 06:28:04;;;;;;;2.80;1.35;;;20.10;50.10;;;;;;5075859;28;20032;-69
2024/02/02 06:30:30;;;;;;;2.85;1.60;;;20.10;50.20;;;;;;5070334;28;20089;-70
2024/02/02 06:33:01;;;;;;;2.17;1.20;;;20.10;50.10;;;;;;5078686;28;20123;-68
2024/02/02 06:35:28;;;;;;;2.67;1.27;;;20.10;50.20;;;;;;5079235;28;20032;-62
2024/02/02 06:37:54;;;;;;;3.10;1.35;;;20.10;50.30;;;;;;5076710;28;20028;-63
2024/02/02 06:40:20;;;;;;;2.45;1.20;;;20.10;50.20;;;;;;5068824;28;20028;-63
2024/02/02 06:42:45;;;;;;;1.95;1.10;;;20.10;51.30;;;;;;5078955;28;20043;-63
2024/02/02 06:45:11;;;;;;;2.20;1.08;;;20.20;51.60;;;;;;5066842;28;20032;-63
2024/02/02 06:47:38;;;;;;;1.38;0.82;;;20.30;51.90;;;;;;5088027;28;20029;-62
2024/02/02 06:50:04;;;;;;;1.55;0.82;;;20.50;52.00;;;;;;5082446;28;20016;-65
2024/02/02 06:52:31;;;;;;;1.15;0.82;;;20.60;52.00;;;;;;5087328;28;20124;-63
2024/02/02 06:54:56;;;;;;;2.03;0.80;;;20.80;51.80;;;;;;5083807;28;20028;-65
2024/02/02 06:57:24;;;;;;;1.73;0.95;;;21.00;51.90;;;;;;5087046;28;20376;-63
2024/02/02 06:59:51;;;;;;;2.53;1.30;;;21.20;51.90;;;;;;5067976;28;20042;-62
2024/02/02 07:02:19;;;;;;;1.88;1.00;;;21.60;51.40;;;;;;5082546;28;20024;-65
2024/02/02 07:04:46;;;;;;;2.22;1.00;;;21.90;51.00;;;;;;5086236;28;20023;-63
2024/02/02 07:07:12;;;;;;;1.60;0.90;;;22.20;50.70;;;;;;5085470;28;20450;-63
2024/02/02 07:09:38;;;;;;;1.83;0.90;;;22.50;50.70;;;;;;5083272;28;20539;-63
2024/02/02 07:12:05;;;;;;;2.75;1.08;;;22.70;51.10;;;;;;5086453;28;20188;-64
2024/02/02 07:14:43;;;;;;;2.05;1.05;;;22.80;50.50;;;;;;5085615;28;20236;-63
2024/02/02 07:17:34;;;;;;;1.92;1.00;;;23.10;50.60;;;;;;5084320;28;20024;-63
2024/02/02 07:20:08;;;;;;;2.55;1.20;;;23.30;50.40;;;;;;5067404;28;20142;-63
2024/02/02 07:22:38;;;;;;;2.08;1.08;;;23.30;47.20;;;;;;5075808;28;20066;-63
2024/02/02 07:25:22;;;;;;;4.25;1.25;;;23.00;47.20;;;;;;5084918;28;20066;-64
2024/02/02 07:27:55;;;;;;;3.75;1.30;;;22.70;47.00;;;;;;5085312;28;20016;-63
2024/02/02 07:30:42;;;;;;;2.97;1.20;;;22.50;47.10;;;;;;5087182;28;20032;-63
2024/02/02 07:33:34;;;;;;;2.10;1.00;;;22.40;47.20;;;;;;5083306;28;20387;-63
2024/02/02 07:36:00;;;;;;;2.70;1.48;;;22.30;47.50;;;;;;5074517;28;20036;-68
2024/02/02 07:38:41;;;;;;;3.42;1.27;;;22.20;47.70;;;;;;5085821;28;20028;-68
2024/02/02 07:41:07;;;;;;;2.60;1.20;;;22.10;47.70;;;;;;5084731;28;20494;-68
2024/02/02 07:43:33;;;;;;;2.40;1.10;;;22.10;47.80;;;;;;5084158;28;20105;-68
2024/02/02 07:46:03;;;;;;;4.30;1.30;;;22.10;48.00;;;;;;5084513;28;20046;-69
2024/02/02 07:48:29;;;;;;;;;;;22.10;48.00;;;;;;5086078;28;20020;-68
2024/02/02 07:50:55;;;;;;;2.35;1.15;;;22.00;47.90;;;;;;5083406;28;19923;-68
2024/02/02 07:53:20;;;;;;;1.73;1.00;;;22.00;48.10;;;;;;5083352;28;20121;-68
2024/02/02 07:55:46;;;;;;;2.30;1.20;;;22.00;48.10;;;;;;5083231;28;20043;-69
2024/02/02 07:58:12;;;;;;;2.13;1.40;;;21.90;48.50;;;;;;5089952;28;20024;-68
2024/02/02 08:00:37;;;;;;;2.08;1.20;;;22.00;48.30;;;;;;5084041;28;20028;-68
2024/02/02 08:03:04;;;;;;;2.88;1.38;;;22.00;48.10;;;;;;5082430;28;20051;-69
2024/02/02 08:05:30;;;;;;;2.63;1.23;;;21.90;47.90;;;;;;5086674;28;20032;-70
2024/02/02 08:07:55;;;;;;;2.25;1.10;;;21.90;48.00;;;;;;5080528;28;20028;-69
2024/02/02 08:10:21;;;;;;;1.75;1.10;;;21.90;48.10;;;;;;5081078;28;20497;-69
2024/02/02 08:12:46;;;;;;;2.03;1.25;;;21.90;48.50;;;;;;5081295;28;20032;-70
2024/02/02 08:15:12;;;;;;;1.70;1.02;;;21.90;48.30;;;;;;5088399;28;20455;-68
2024/02/02 08:17:37;;;;;;;1.73;1.00;;;21.90;48.10;;;;;;5079132;28;20070;-69
2024/02/02 08:20:03;;;;;;;2.53;1.30;;;21.90;48.10;;;;;;5085843;28;20032;-69
2024/02/02 08:22:29;;;;;;;1.67;1.08;;;21.90;48.50;;;;;;5085939;28;20435;-68
2024/02/02 08:24:55;;;;;;;2.47;1.30;;;21.90;47.90;;;;;;5062752;28;20459;-68
2024/02/02 08:27:21;;;;;;;3.40;1.05;;;21.90;47.90;;;;;;5065303;28;20025;-68
2024/02/02 08:29:48;;;;;;;1.98;1.27;;;21.90;47.90;;;;;;5072341;28;20055;-68
2024/02/02 08:32:15;;;;;;;2.45;1.30;;;21.90;48.00;;;;;;5086271;28;20546;-68
2024/02/02 08:34:41;;;;;;;2.42;1.20;;;21.90;47.90;;;;;;5079735;28;20853;-68
2024/02/02 08:37:07;;;;;;;2.78;1.08;;;21.90;48.80;;;;;;5083914;28;20092;-68
2024/02/02 08:39:35;;;;;;;1.35;0.90;;;22.10;48.90;;;;;;5083352;28;20376;-68
2024/02/02 08:42:07;;;;;;;1.67;1.10;;;22.10;49.20;;;;;;5092748;28;20479;-69
2024/02/02 08:44:34;;;;;;;2.20;0.85;;;22.10;49.40;;;;;;5094633;28;20051;-67
2024/02/02 08:46:59;;;;;;;1.13;0.82;;;22.20;49.60;;;;;;5092817;28;20051;-68
2024/02/02 08:49:53;;;;;;;1.55;0.80;;;22.10;49.70;;;;;;5094264;28;20473;-67
2024/02/02 08:52:43;;;;;;;1.45;0.90;;;22.10;50.00;;;;;;5092382;28;20450;-68
2024/02/02 08:55:39;;;;;;;1.83;1.00;;;22.20;50.30;;;;;;5083251;28;20368;-68
2024/02/02 08:58:10;;;;;;;2.40;0.95;;;22.10;49.20;;;;;;5067678;28;20024;-68
2024/02/02 09:00:38;;;;;;;2.28;1.20;;;22.10;48.60;;;;;;5078348;28;20037;-67
2024/02/02 09:03:07;;;;;;;1.70;1.10;;;22.10;48.20;;;;;;5068968;28;20020;-67
2024/02/02 09:05:57;;;;;;;1.60;1.00;;;22.10;47.90;;;;;;5080500;28;20017;-67
2024/02/02 09:08:25;;;;;;;3.38;1.33;;;22.10;48.00;;;;;;5062878;28;20083;-67
2024/02/02 09:10:57;;;;;;;2.40;1.10;;;22.10;47.90;;;;;;5061758;28;20024;-68
2024/02/02 09:13:46;;;;;;;2.03;1.23;;;22.00;47.60;;;;;;5062966;28;20027;-67
2024/02/02 09:16:17;;;;;;;2.15;1.05;;;22.00;47.60;;;;;;5060961;28;20032;-67
2024/02/02 09:18:45;;;;;;;3.17;1.10;;;22.00;47.60;;;;;;5080231;28;20044;-68
2024/02/02 09:21:14;;;;;;;2.17;1.17;;;22.00;47.60;;;;;;5078190;28;20059;-68
2024/02/02 09:23:51;;;;;;;2.53;1.10;;;22.00;47.60;;;;;;5064791;28;20041;-68
2024/02/02 09:26:39;;;;;;;2.63;1.15;;;22.00;47.50;;;;;;5063075;28;20891;-68
2024/02/02 09:29:05;;;;;;;2.45;1.30;;;21.90;47.60;;;;;;5077711;28;20440;-68
2024/02/02 09:31:37;;;;;;;2.95;1.38;;;21.90;47.50;;;;;;5079228;28;20028;-68
2024/02/02 09:34:06;;;;;;;2.28;1.30;;;21.90;47.40;;;;;;5072713;28;20031;-67
2024/02/02 09:36:33;;;;;;;2.60;1.20;;;21.90;47.40;;;;;;5081718;28;20024;-68
2024/02/02 09:39:25;;;;;;;3.28;1.00;;;21.90;47.50;;;;;;5093860;28;20131;-69
2024/02/02 09:42:15;;;;;;;1.30;0.88;;;22.00;48.30;;;;;;5097055;28;20051;-68
2024/02/02 09:45:07;;;;;;;1.65;0.90;;;22.10;48.70;;;;;;5093930;28;20081;-67
2024/02/02 09:47:57;;;;;;;1.60;0.90;;;22.00;49.20;;;;;;5024586;28;20089;-67
2024/02/02 09:50:46;;;;;;;1.30;0.85;;;22.00;49.20;;;;;;5092818;28;20027;-68
2024/02/02 09:53:34;;;;;;;1.63;0.98;;;22.20;49.90;;;;;;5068992;28;20020;-69
2024/02/02 09:56:27;;;;;;;1.48;0.90;;;22.30;50.10;;;;;;5095529;28;20024;-65
2024/02/02 09:59:01;;;;;;;1.35;0.85;;;22.50;49.90;;;;;;5093636;28;20093;-64
2024/02/02 10:02:01;;;;;;;1.50;0.90;;;22.70;50.10;;;;;;5069074;28;20028;-63
2024/02/02 10:04:59;;;;;;;2.22;0.90;;;22.90;49.90;;;;;;5077635;28;20085;-65
2024/02/02 10:07:57;;;;;;;1.15;0.70;;;23.10;49.70;;;;;;5093025;28;20025;-65
2024/02/02 10:10:46;;;;;;;1.48;0.90;;;23.30;49.60;;;;;;5016075;28;20107;-65
2024/02/02 10:13:21;;;;;;;1.70;0.80;;;23.50;49.60;;;;;;5036116;28;20033;-65
2024/02/02 10:15:58;;;;;;;1.00;0.80;;;23.60;49.40;;;;;;5070075;28;20397;-65
2024/02/02 10:18:54;;;;;;;0.98;0.70;;;23.70;49.60;;;;;;5062085;28;20103;-65
2024/02/02 10:21:49;;;;;;;1.98;0.80;;;23.60;49.80;;;;;;5063971;28;20027;-65
2024/02/02 10:24:21;;;;;;;1.45;0.80;;;23.50;49.90;;;;;;5043305;28;20044;-65
2024/02/02 10:26:58;;;;;;;1.40;0.70;;;23.60;50.00;;;;;;5075779;28;20151;-65
2024/02/02 10:30:04;;;;;;;0.65;0.60;;;23.80;50.20;;;;;;5093284;28;20036;-65
2024/02/02 10:32:55;;;;;;;1.05;0.68;;;23.90;49.90;;;;;;5036276;28;20528;-65
2024/02/02 10:35:33;;;;;;;0.65;0.63;;;23.90;49.80;;;;;;5068491;28;20026;-66
2024/02/02 10:38:18;;;;;;;2.20;0.73;;;23.90;49.80;;;;;;5093108;28;20122;-64
2024/02/02 10:40:59;;;;;;;1.17;0.80;;;23.90;49.80;;;;;;5091880;28;20032;-65
2024/02/02 10:43:32;;;;;;;0.70;0.70;;;24.00;50.10;;;;;;5059481;28;20024;-65
2024/02/02 10:46:03;;;;;;;0.60;0.60;;;24.00;50.20;;;;;;5095947;28;20028;-65
2024/02/02 10:48:35;;;;;;;1.98;0.70;;;24.00;50.30;;;;;;5060712;28;20354;-65
2024/02/02 10:51:37;;;;;;;0.60;0.60;;;23.90;50.30;;;;;;5060106;28;20726;-65
2024/02/02 10:54:13;;;;;;;1.10;0.70;;;23.90;50.40;;;;;;5059992;28;20098;-65
2024/02/02 10:56:58;;;;;;;1.60;0.80;;;24.00;50.90;;;;;;5066585;28;20081;-64
2024/02/02 10:59:44;;;;;;;0.93;0.60;;;24.10;50.30;;;;;;5060588;28;20032;-64
2024/02/02 11:02:35;;;;;;;1.52;0.93;;;24.10;50.40;;;;;;5079216;28;20103;-64
2024/02/02 11:05:10;;;;;;;1.98;1.10;;;24.10;47.30;;;;;;5058973;28;20051;-63
2024/02/02 11:08:02;;;;;;;1.40;0.90;;;24.00;45.60;;;;;;5095336;28;20545;-63
2024/02/02 11:10:35;;;;;;;3.10;1.63;;;23.80;44.30;;;;;;5056359;28;20033;-67
2024/02/02 11:13:33;;;;;;;5.18;3.80;;;23.70;44.60;;;;;;5095365;28;20048;-62
2024/02/02 11:16:09;;;;;;;12.85;9.60;;;23.60;45.30;;;;;;5064052;28;20128;-63
2024/02/02 11:19:08;;;;;;;14.85;11.23;;;23.50;45.20;;;;;;5060438;28;20380;-64
2024/02/02 11:21:38;;;;;;;;;;;23.50;45.30;;;;;;5078502;28;20446;-63
2024/02/02 11:24:48;;;;;;;12.38;9.88;;;23.50;44.60;;;;;;5075731;28;20022;-63
2024/02/02 11:27:19;;;;;;;12.35;9.05;;;23.40;44.70;;;;;;5058504;28;20476;-63
2024/02/02 11:30:13;;;;;;;14.00;10.35;;;23.30;45.00;;;;;;5076882;28;20636;-66
2024/02/02 11:32:52;;;;;;;17.48;13.60;;;23.20;45.40;;;;;;5081815;28;20054;-62
2024/02/02 11:35:53;;;;;;;18.83;14.43;;;23.30;45.30;;;;;;5097358;28;20187;-63
2024/02/02 11:38:54;;;;;;;18.50;13.82;;;23.30;45.50;;;;;;5082708;28;20078;-63
2024/02/02 11:41:22;;;;;;;15.20;11.52;;;23.20;45.10;;;;;;5079986;28;20044;-62
2024/02/02 11:43:53;;;;;;;14.95;11.05;;;23.20;45.60;;;;;;5084503;28;20043;-61
2024/02/02 11:46:25;;;;;;;14.20;10.35;;;23.20;46.20;;;;;;5083844;28;20096;-62
2024/02/02 11:49:01;;;;;;;14.88;10.93;;;23.20;46.20;;;;;;5081925;28;20361;-62
2024/02/02 11:51:28;;;;;;;14.23;11.15;;;23.20;45.60;;;;;;5088469;28;20111;-64
2024/02/02 11:54:25;;;;;;;14.48;10.60;;;23.10;45.70;;;;;;5097839;28;20099;-63
2024/02/02 11:56:52;;;;;;;14.73;10.73;;;23.10;45.70;;;;;;5066574;28;20032;-62
2024/02/02 11:59:21;;;;;;;12.20;9.23;;;23.10;45.80;;;;;;5046377;28;20036;-63
2024/02/02 12:02:06;;;;;;;12.23;8.70;;;23.00;46.00;;;;;;5064603;28;20120;-61
2024/02/02 12:04:44;;;;;;;10.05;7.90;;;23.00;46.10;;;;;;5080813;28;20477;-63
2024/02/02 12:07:31;;;;;;;9.95;7.70;;;23.00;46.00;;;;;;5081651;28;20020;-63
2024/02/02 12:10:05;;;;;;;10.43;7.55;;;23.00;46.20;;;;;;5097931;28;20059;-63
2024/02/02 12:12:45;;;;;;;11.07;8.13;;;22.90;46.30;;;;;;5070129;28;20034;-63
2024/02/02 12:15:11;;;;;;;10.20;7.78;;;22.90;46.50;;;;;;5080998;28;20020;-68
2024/02/02 12:17:37;;;;;;;9.18;7.10;;;22.90;46.70;;;;;;5078890;28;20028;-68
2024/02/02 12:20:07;;;;;;;9.98;7.13;;;22.90;46.60;;;;;;5079984;28;20038;-69
2024/02/02 12:22:34;;;;;;;9.10;6.72;;;22.90;46.60;;;;;;5077056;28;20028;-68
2024/02/02 12:25:00;;;;;;;9.55;6.70;;;22.90;46.70;;;;;;5080533;28;20023;-67
2024/02/02 12:27:26;;;;;;;8.80;5.70;;;22.90;46.60;;;;;;5080295;28;20024;-67
2024/02/02 12:29:52;;;;;;;10.13;6.82;;;22.90;46.70;;;;;;5081131;28;20077;-68
2024/02/02 12:32:18;;;;;;;8.55;6.22;;;22.90;46.70;;;;;;5081228;28;20048;-67
2024/02/02 12:34:45;;;;;;;7.93;5.70;;;22.90;46.80;;;;;;5080813;28;20593;-68
2024/02/02 12:37:10;;;;;;;9.35;6.30;;;22.90;46.80;;;;;;5079307;28;20059;-68
2024/02/02 12:39:37;;;;;;;8.88;6.22;;;22.90;46.80;;;;;;5076124;28;20081;-68
2024/02/02 12:42:06;;;;;;;7.80;5.75;;;22.90;46.80;;;;;;5059185;28;20024;-68
2024/02/02 12:44:32;;;;;;;7.68;5.32;;;22.80;46.70;;;;;;5077028;28;20942;-68
2024/02/02 12:46:59;;;;;;;7.97;5.45;;;22.80;46.80;;;;;;5080026;28;20031;-68
2024/02/02 12:49:25;;;;;;;7.53;5.40;;;22.80;46.80;;;;;;5079446;28;20016;-68
2024/02/02 12:51:54;;;;;;;8.15;5.57;;;22.80;46.90;;;;;;5077623;28;20128;-67
2024/02/02 12:54:20;;;;;;;8.40;5.43;;;22.80;46.90;;;;;;5095321;28;20499;-67
2024/02/02 12:56:45;;;;;;;6.65;5.15;;;22.80;47.00;;;;;;5078820;28;20031;-69
2024/02/02 12:59:12;;;;;;;7.13;5.13;;;22.80;47.00;;;;;;5080688;28;20359;-69
2024/02/02 13:01:38;;;;;;;7.20;5.10;;;22.80;47.00;;;;;;5079252;28;20036;-68